Time;durP1;ratioP1;P1;durP2;ratioP2;P2;SDS_P1;SDS_P2;PMS_P1;PMS_P2;Temp;Humidity;BMP_temperature;BMP_pressure;BME280_temperature;BME280_humidity;BME280_pressure;Samples;Min_cycle;Max_cycle;Signal;HPM_P1;HPM_P2
2022/05/04 00:00:40;;;;;;;;;;;;;;;12.00;34.46;95565.94;5004567;28;20205;-70
2022/05/04 00:03:05;;;;;;;;;;;;;;;11.94;35.43;95566.69;5003879;28;20207;-70
2022/05/04 00:05:31;;;;;;;;;;;;;;;11.85;35.44;95558.78;5008731;28;20038;-70
2022/05/04 00:07:56;;;;;;;;;;;;;;;11.92;35.35;95560.69;5020855;28;20021;-69
2022/05/04 00:10:22;;;;;;;;;;;;;;;11.92;35.90;95564.19;5017456;28;20325;-70
2022/05/04 00:12:47;;;;;;;;;;;;;;;12.00;35.52;95560.59;5018612;28;20090;-70
2022/05/04 00:15:13;;;;;;;;;;;;;;;12.01;35.61;95559.56;5023978;28;19976;-70
2022/05/04 00:17:38;;;;;;;;;;;;;;;11.95;35.94;95552.31;5023912;28;19964;-70
2022/05/04 00:20:03;;;;;;;;;;;;;;;11.84;35.37;95551.81;5012623;28;19992;-71
2022/05/04 00:22:29;;;;;;;;;;;;;;;11.92;35.97;95550.84;5011633;28;19997;-70
2022/05/04 00:24:54;;;;;;;;;;;;;;;11.86;36.26;95548.94;5022098;28;20099;-71
2022/05/04 00:27:19;;;;;;;;;;;;;;;11.82;36.13;95553.81;5022921;28;20016;-71
2022/05/04 00:29:45;;;;;;;;;;;;;;;11.74;36.93;95552.09;5023540;28;19978;-70
2022/05/04 00:32:11;;;;;;;;;;;;;;;11.85;36.30;95555.28;5023586;28;19994;-71
2022/05/04 00:34:36;;;;;;;;;;;;;;;11.83;36.19;95552.81;5023441;28;19973;-71
2022/05/04 00:37:01;;;;;;;;;;;;;;;11.79;35.61;95554.19;5014912;28;19988;-71
2022/05/04 00:39:27;;;;;;;;;;;;;;;11.73;36.82;95553.09;5023418;28;19987;-71
2022/05/04 00:41:52;;;;;;;;;;;;;;;11.74;36.83;95553.94;5022963;28;19974;-70
2022/05/04 00:44:17;;;;;;;;;;;;;;;11.76;36.93;95560.72;5021497;28;20427;-71
2022/05/04 00:46:43;;;;;;;;;;;;;;;11.69;37.10;95556.34;5013474;28;19997;-71
2022/05/04 00:49:08;;;;;;;;;;;;;;;11.70;37.01;95561.47;5015288;28;20187;-71
2022/05/04 00:51:33;;;;;;;;;;;;;;;11.75;36.08;95550.25;5021899;28;19988;-71
2022/05/04 00:53:58;;;;;;;;;;;;;;;11.71;36.83;95559.63;5012193;28;20249;-72
2022/05/04 00:56:24;;;;;;;;;;;;;;;11.67;36.70;95563.69;5022501;28;19990;-72
2022/05/04 00:58:55;;;;;;;;;;;;;;;11.72;36.84;95556.78;5022786;28;19968;-72
2022/05/04 01:01:23;;;;;;;;;;;;;;;11.79;36.72;95556.06;5021731;28;20053;-72
2022/05/04 01:03:49;;;;;;;;;;;;;;;11.81;36.69;95560.19;5014893;28;19988;-70
2022/05/04 01:06:14;;;;;;;;;;;;;;;11.90;36.79;95559.03;5017118;28;19978;-70
2022/05/04 01:08:40;;;;;;;;;;;;;;;11.92;36.57;95556.19;5015471;28;20361;-70
2022/05/04 01:11:05;;;;;;;;;;;;;;;11.93;36.49;95554.34;5014793;28;20445;-66
2022/05/04 01:13:30;;;;;;;;;;;;;;;11.90;36.12;95555.56;5018614;28;19967;-65
2022/05/04 01:15:55;;;;;;;;;;;;;;;12.01;36.22;95554.25;5017562;28;19989;-65
2022/05/04 01:18:21;;;;;;;;;;;;;;;12.05;36.22;95546.66;5008348;28;19978;-65
2022/05/04 01:20:46;;;;;;;;;;;;;;;12.02;36.38;95545.22;5015296;28;19997;-65
2022/05/04 01:23:11;;;;;;;;;;;;;;;11.91;35.95;95554.53;5020873;28;20008;-65
2022/05/04 01:25:36;;;;;;;;;;;;;;;11.98;36.12;95549.28;5002996;28;19979;-64
2022/05/04 01:28:02;;;;;;;;;;;;;;;11.95;36.03;95544.31;5014584;28;20401;-65
2022/05/04 01:30:27;;;;;;;;;;;;;;;11.92;35.80;95545.53;5019921;28;20041;-65
2022/05/04 01:32:52;;;;;;;;;;;;;;;11.96;36.24;95544.13;5008137;28;19993;-68
2022/05/04 01:35:18;;;;;;;;;;;;;;;11.98;36.24;95549.28;5017151;28;20364;-69
2022/05/04 01:37:43;;;;;;;;;;;;;;;11.92;36.57;95550.03;5011168;28;20032;-69
2022/05/04 01:40:09;;;;;;;;;;;;;;;11.91;36.34;95551.88;5008489;28;20020;-72
2022/05/04 01:42:34;;;;;;;;;;;;;;;11.87;36.31;95546.06;5014462;28;20021;-69
2022/05/04 01:44:59;;;;;;;;;;;;;;;11.91;36.40;95543.88;5012229;28;19993;-69
2022/05/04 01:47:24;;;;;;;;;;;;;;;11.95;36.42;95538.97;5021552;28;19981;-69
2022/05/04 01:49:50;;;;;;;;;;;;;;;11.88;36.28;95542.41;5019962;28;19965;-69
2022/05/04 01:52:15;;;;;;;;;;;;;;;11.90;36.51;95540.38;5016462;28;20013;-69
2022/05/04 01:54:40;;;;;;;;;;;;;;;11.93;35.90;95538.34;5005617;28;19984;-69
2022/05/04 01:57:05;;;;;;;;;;;;;;;11.85;36.44;95539.28;5003899;28;20089;-69
2022/05/04 01:59:31;;;;;;;;;;;;;;;11.98;36.36;95530.59;5019187;28;19981;-69
2022/05/04 02:01:56;;;;;;;;;;;;;;;11.91;36.44;95533.22;5009209;28;19974;-66
2022/05/04 02:04:22;;;;;;;;;;;;;;;11.95;36.21;95531.81;5005036;28;20432;-69
2022/05/04 02:06:47;;;;;;;;;;;;;;;11.88;36.52;95534.41;5005828;28;20647;-70
2022/05/04 02:09:12;;;;;;;;;;;;;;;11.85;36.46;95525.94;5002953;28;20016;-68
2022/05/04 02:11:37;;;;;;;;;;;;;;;11.83;36.43;95530.66;5015714;28;20470;-69
2022/05/04 02:14:03;;;;;;;;;;;;;;;11.78;36.35;95528.53;5014937;28;19974;-69
2022/05/04 02:16:28;;;;;;;;;;;;;;;11.60;35.87;95526.28;5001813;28;19984;-69
2022/05/04 02:18:54;;;;;;;;;;;;;;;11.23;36.86;95534.22;5009159;28;19968;-69
2022/05/04 02:21:19;;;;;;;;;;;;;;;11.25;37.11;95526.84;5016275;28;20999;-69
2022/05/04 02:23:44;;;;;;;;;;;;;;;10.83;38.04;95535.28;5007796;28;20000;-69
2022/05/04 02:26:09;;;;;;;;;;;;;;;11.03;37.80;95534.75;5018938;28;20129;-69
2022/05/04 02:28:35;;;;;;;;;;;;;;;11.11;38.15;95529.34;5013353;28;20011;-65
2022/05/04 02:31:00;;;;;;;;;;;;;;;11.19;37.93;95527.63;5017926;28;20014;-65
2022/05/04 02:33:25;;;;;;;;;;;;;;;11.26;36.91;95529.34;5001868;28;19966;-66
2022/05/04 02:38:34;;;;;;;;;;;;;;;11.14;38.21;95541.47;5009528;28;20084;-65
2022/05/04 02:40:59;;;;;;;;;;;;;;;11.20;37.91;95530.09;5018616;28;20015;-65
2022/05/04 02:43:26;;;;;;;;;;;;;;;11.16;37.65;95530.63;5013077;28;19977;-66
2022/05/04 02:45:51;;;;;;;;;;;;;;;11.23;37.92;95535.06;5011691;28;20390;-64
2022/05/04 02:48:17;;;;;;;;;;;;;;;11.20;37.99;95531.91;5015121;28;20081;-65
2022/05/04 02:50:42;;;;;;;;;;;;;;;11.10;38.17;95535.69;5015373;28;20186;-65
2022/05/04 02:53:07;;;;;;;;;;;;;;;11.16;37.83;95523.47;5005336;28;19989;-66
2022/05/04 02:55:32;;;;;;;;;;;;;;;11.10;38.41;95529.53;5007539;28;19994;-65
2022/05/04 02:57:58;;;;;;;;;;;;;;;11.05;38.37;95530.03;5009228;28;19974;-65
2022/05/04 03:00:24;;;;;;;;;;;;;;;10.97;37.80;95532.78;5008700;28;19994;-65
2022/05/04 03:02:50;;;;;;;;;;;;;;;10.97;38.47;95533.63;5010851;28;19979;-65
2022/05/04 03:05:15;;;;;;;;;;;;;;;10.93;38.33;95534.19;5008176;28;20517;-65
2022/05/04 03:07:41;;;;;;;;;;;;;;;10.81;38.70;95531.16;5005503;28;20042;-64
2022/05/04 03:10:06;;;;;;;;;;;;;;;10.88;38.24;95527.56;5007112;28;19968;-64
2022/05/04 03:12:31;;;;;;;;;;;;;;;10.87;38.76;95528.56;5014389;28;19987;-65
2022/05/04 03:14:57;;;;;;;;;;;;;;;10.90;38.73;95523.88;5016475;28;19971;-65
2022/05/04 03:17:22;;;;;;;;;;;;;;;10.96;38.35;95528.50;5001014;28;20175;-64
2022/05/04 03:19:48;;;;;;;;;;;;;;;11.00;38.31;95524.44;5014972;28;19993;-66
2022/05/04 03:22:13;;;;;;;;;;;;;;;11.08;38.28;95526.22;5014528;28;20021;-68
2022/05/04 03:24:38;;;;;;;;;;;;;;;11.08;38.21;95521.69;5020314;28;19989;-68
2022/05/04 03:27:04;;;;;;;;;;;;;;;11.11;38.16;95517.84;5023017;28;19966;-68
2022/05/04 03:29:29;;;;;;;;;;;;;;;11.11;38.32;95520.53;5013771;28;20082;-68
2022/05/04 03:31:54;;;;;;;;;;;;;;;11.21;38.03;95517.59;5012313;28;20004;-69
2022/05/04 03:34:20;;;;;;;;;;;;;;;11.27;37.66;95519.53;5010215;28;20061;-68
2022/05/04 03:36:45;;;;;;;;;;;;;;;11.30;37.64;95511.16;5014540;28;20217;-68
2022/05/04 03:39:11;;;;;;;;;;;;;;;11.26;37.60;95507.22;5023471;28;19984;-67
2022/05/04 03:41:36;;;;;;;;;;;;;;;11.31;37.73;95507.47;5022918;28;19958;-69
2022/05/04 03:44:01;;;;;;;;;;;;;;;11.31;37.64;95514.63;5015797;28;20031;-68
2022/05/04 03:46:27;;;;;;;;;;;;;;;11.28;37.93;95507.84;5011372;28;20049;-68
2022/05/04 03:48:53;;;;;;;;;;;;;;;11.25;37.70;95516.19;5021913;28;19995;-68
2022/05/04 03:51:19;;;;;;;;;;;;;;;11.22;37.99;95512.06;5018496;28;20373;-68
2022/05/04 03:53:44;;;;;;;;;;;;;;;11.21;38.09;95517.59;5018794;28;19968;-68
2022/05/04 03:56:10;;;;;;;;;;;;;;;11.16;37.99;95517.31;5014683;28;19990;-68
2022/05/04 03:58:37;;;;;;;;;;;;;;;11.10;37.88;95514.38;5022473;28;20013;-67
2022/05/04 04:01:03;;;;;;;;;;;;;;;11.06;37.49;95521.06;5020049;28;20037;-68
2022/05/04 04:03:28;;;;;;;;;;;;;;;10.95;37.65;95526.84;5013444;28;19994;-68
2022/05/04 04:05:53;;;;;;;;;;;;;;;10.79;37.71;95527.81;5007218;28;19984;-68
2022/05/04 04:08:19;;;;;;;;;;;;;;;10.86;38.42;95524.25;5005412;28;19994;-68
2022/05/04 04:10:44;;;;;;;;;;;;;;;10.97;38.15;95520.31;5007180;28;19966;-68
2022/05/04 04:13:09;;;;;;;;;;;;;;;11.09;38.05;95523.38;5006293;28;20509;-68
2022/05/04 04:15:34;;;;;;;;;;;;;;;11.18;38.14;95517.97;5014429;28;19992;-68
2022/05/04 04:18:00;;;;;;;;;;;;;;;11.24;37.98;95520.72;5023953;28;20045;-69
2022/05/04 04:23:09;;;;;;;;;;;;;;;11.31;37.63;95522.63;5013554;28;19994;-68
2022/05/04 04:25:35;;;;;;;;;;;;;;;11.37;37.80;95522.75;5013795;28;19976;-68
2022/05/04 04:28:00;;;;;;;;;;;;;;;11.40;37.71;95521.53;5021479;28;19997;-68
2022/05/04 04:30:25;;;;;;;;;;;;;;;11.45;37.32;95531.63;5022687;28;19999;-68
2022/05/04 04:32:50;;;;;;;;;;;;;;;11.51;37.24;95528.22;5007035;28;19995;-68
2022/05/04 04:35:16;;;;;;;;;;;;;;;11.54;37.27;95530.53;5012204;28;20020;-69
2022/05/04 04:37:41;;;;;;;;;;;;;;;11.52;36.60;95527.19;5018952;28;19967;-68
2022/05/04 04:40:07;;;;;;;;;;;;;;;11.40;37.17;95532.19;5017041;28;19984;-69
2022/05/04 04:42:32;;;;;;;;;;;;;;;11.45;37.40;95529.78;5007977;28;20000;-69
2022/05/04 04:44:57;;;;;;;;;;;;;;;11.41;37.24;95536.50;5019522;28;20083;-70
2022/05/04 04:47:22;;;;;;;;;;;;;;;11.34;37.30;95533.75;5011827;28;20381;-70
2022/05/04 04:49:48;;;;;;;;;;;;;;;11.42;37.37;95540.81;5023933;28;20065;-70
2022/05/04 04:52:13;;;;;;;;;;;;;;;11.17;37.42;95546.44;5021179;28;20033;-71
2022/05/04 04:54:38;;;;;;;;;;;;;;;11.31;37.80;95550.13;5022842;28;19974;-70
2022/05/04 04:57:04;;;;;;;;;;;;;;;11.52;37.33;95549.38;5021440;28;19988;-71
2022/05/04 04:59:29;;;;;;;;;;;;;;;11.52;36.98;95557.38;5009727;28;20013;-71
2022/05/04 05:01:54;;;;;;;;;;;;;;;11.79;36.58;95554.19;5017710;28;20499;-69
2022/05/04 05:04:19;;;;;;;;;;;;;;;11.87;36.45;95556.75;5009841;28;20111;-69
2022/05/04 05:06:44;;;;;;;;;;;;;;;11.98;36.30;95560.78;5011094;28;19993;-69
2022/05/04 05:09:10;;;;;;;;;;;;;;;12.05;36.24;95562.69;5006407;28;19992;-66
2022/05/04 05:11:35;;;;;;;;;;;;;;;11.90;36.73;95566.25;5012679;28;20087;-70
2022/05/04 05:16:44;;;;;;;;;;;;;;;11.66;36.62;95564.72;5018580;28;19990;-69
2022/05/04 05:19:10;;;;;;;;;;;;;;;11.67;37.11;95567.19;5011816;28;19963;-69
2022/05/04 05:21:35;;;;;;;;;;;;;;;11.87;37.10;95567.41;5010360;28;20023;-69
2022/05/04 05:24:00;;;;;;;;;;;;;;;12.08;36.46;95562.34;5006054;28;20129;-69
2022/05/04 05:26:25;;;;;;;;;;;;;;;12.24;36.25;95569.28;5013235;28;20281;-69
2022/05/04 05:28:51;;;;;;;;;;;;;;;12.36;35.80;95564.25;5012102;28;20103;-69
2022/05/04 05:31:16;;;;;;;;;;;;;;;12.45;37.34;95571.16;5020701;28;20740;-69
2022/05/04 05:33:45;;;;;;;;;;;;;;;12.51;35.74;95562.34;5021890;28;19967;-69
2022/05/04 05:36:10;;;;;;;;;;;;;;;12.59;35.76;95568.56;5017425;28;20087;-69
2022/05/04 05:38:35;;;;;;;;;;;;;;;12.65;35.37;95565.97;5008203;28;20063;-70
2022/05/04 05:41:01;;;;;;;;;;;;;;;12.74;35.39;95572.00;5010657;28;20016;-69
2022/05/04 05:43:28;;;;;;;;;;;;;;;12.86;34.86;95566.13;5008163;28;20127;-70
2022/05/04 05:45:53;;;;;;;;;;;;;;;12.89;34.91;95569.22;5015266;28;19971;-71
2022/05/04 05:48:19;;;;;;;;;;;;;;;12.99;34.74;95568.06;5010575;28;19972;-71
2022/05/04 05:50:44;;;;;;;;;;;;;;;13.05;35.16;95560.13;5012512;28;19962;-72
2022/05/04 05:53:10;;;;;;;;;;;;;;;13.11;34.73;95558.53;5012591;28;20039;-64
2022/05/04 05:55:35;;;;;;;;;;;;;;;13.07;34.61;95561.78;5016504;28;19985;-64
2022/05/04 05:58:01;;;;;;;;;;;;;;;13.11;34.43;95555.00;5019469;28;20336;-64
2022/05/04 06:00:26;;;;;;;;;;;;;;;13.16;34.14;95558.75;5011018;28;20433;-64
2022/05/04 06:02:52;;;;;;;;;;;;;;;13.24;34.12;95552.44;5011328;28;19953;-64
2022/05/04 06:05:17;;;;;;;;;;;;;;;13.31;33.84;95556.00;5018993;28;20445;-64
2022/05/04 06:07:42;;;;;;;;;;;;;;;13.39;33.79;95549.63;5011210;28;19993;-64
2022/05/04 06:10:08;;;;;;;;;;;;;;;13.46;33.72;95555.00;5007027;28;20453;-64
2022/05/04 06:12:33;;;;;;;;;;;;;;;13.56;34.04;95549.31;5004402;28;20617;-64
2022/05/04 06:14:58;;;;;;;;;;;;;;;13.49;33.32;95553.81;5012860;28;19991;-66
2022/05/04 06:17:24;;;;;;;;;;;;;;;13.11;34.53;95561.19;5011707;28;20254;-64
2022/05/04 06:19:49;;;;;;;;;;;;;;;12.99;34.89;95565.41;5016911;28;20100;-65
2022/05/04 06:22:14;;;;;;;;;;;;;;;13.26;34.43;95565.63;5011091;28;19960;-64
2022/05/04 06:24:39;;;;;;;;;;;;;;;13.31;34.00;95566.69;5013185;28;20232;-64
2022/05/04 06:27:05;;;;;;;;;;;;;;;13.28;34.05;95574.25;5009417;28;19968;-64
2022/05/04 06:35:00;;;;;;;;;;;;;;;12.85;35.88;95584.00;5014617;28;20544;-73
2022/05/04 06:37:26;;;;;;;;;;;;;;;13.04;34.99;95587.88;5014545;28;20055;-71
2022/05/04 06:39:53;;;;;;;;;;;;;;;13.02;35.63;95589.91;5019732;28;20467;-71
2022/05/04 06:42:18;;;;;;;;;;;;;;;13.16;35.28;95582.81;5011357;28;20041;-71
2022/05/04 06:44:43;;;;;;;;;;;;;;;13.16;34.56;95584.69;5014109;28;20232;-71
2022/05/04 06:47:08;;;;;;;;;;;;;;;13.13;34.75;95588.53;5018908;28;19952;-71
2022/05/04 06:49:34;;;;;;;;;;;;;;;13.18;34.23;95583.47;5019371;28;19954;-71
2022/05/04 06:51:59;;;;;;;;;;;;;;;13.05;34.37;95583.34;5017624;28;19976;-71
2022/05/04 06:54:24;;;;;;;;;;;;;;;13.10;34.53;95586.28;5009213;28;19996;-71
2022/05/04 06:56:49;;;;;;;;;;;;;;;13.08;34.55;95590.97;5003081;28;19977;-71
2022/05/04 06:59:15;;;;;;;;;;;;;;;13.11;34.47;95587.09;5017088;28;20332;-71
2022/05/04 07:01:40;;;;;;;;;;;;;;;13.28;34.03;95580.44;5010559;28;20094;-71
2022/05/04 07:04:05;;;;;;;;;;;;;;;13.36;34.14;95578.63;5008823;28;20026;-71
2022/05/04 07:06:31;;;;;;;;;;;;;;;13.46;33.94;95586.28;5009700;28;20022;-71
2022/05/04 07:08:56;;;;;;;;;;;;;;;13.54;33.68;95578.09;5000266;28;20026;-71
2022/05/04 07:11:21;;;;;;;;;;;;;;;13.67;33.43;95580.03;5010890;28;20445;-71
2022/05/04 07:13:47;;;;;;;;;;;;;;;13.78;33.27;95581.31;5015121;28;20552;-71
2022/05/04 07:16:12;;;;;;;;;;;;;;;13.85;33.26;95579.47;5007475;28;20004;-72
2022/05/04 07:18:37;;;;;;;;;;;;;;;13.90;33.07;95578.94;5007681;28;19996;-72
2022/05/04 07:21:02;;;;;;;;;;;;;;;13.74;33.13;95582.72;5013785;28;19980;-71
2022/05/04 07:23:28;;;;;;;;;;;;;;;13.83;33.01;95578.84;5010911;28;19987;-71
2022/05/04 07:25:54;;;;;;;;;;;;;;;13.86;33.05;95582.97;5014116;28;20286;-71
2022/05/04 07:28:19;;;;;;;;;;;;;;;13.97;32.96;95586.97;5011515;28;20056;-70
2022/05/04 07:30:44;;;;;;;;;;;;;;;14.00;32.78;95578.53;5003147;28;20497;-72
2022/05/04 07:33:10;;;;;;;;;;;;;;;14.04;32.76;95574.44;5001925;28;19976;-72
2022/05/04 07:35:35;;;;;;;;;;;;;;;14.06;32.68;95577.72;5002069;28;19973;-71
2022/05/04 07:38:00;;;;;;;;;;;;;;;14.16;32.49;95588.03;5015325;28;20443;-72
2022/05/04 07:43:09;;;;;;;;;;;;;;;14.49;31.97;95583.78;4996938;28;19966;-72
2022/05/04 07:45:35;;;;;;;;;;;;;;;14.31;32.60;95580.66;5008696;28;20098;-71
2022/05/04 07:48:00;;;;;;;;;;;;;;;14.55;32.12;95586.47;5005988;28;20040;-72
2022/05/04 07:50:25;;;;;;;;;;;;;;;14.52;31.94;95588.75;5015481;28;20343;-72
2022/05/04 07:52:51;;;;;;;;;;;;;;;14.70;31.79;95591.66;5016061;28;20268;-72
2022/05/04 07:55:16;;;;;;;;;;;;;;;14.62;32.43;95586.47;5013149;28;19979;-72
2022/05/04 07:57:47;;;;;;;;;;;;;;;14.71;31.64;95593.31;5013268;28;19968;-72
2022/05/04 08:05:59;;;;;;;;;;;;;;;14.85;32.24;95607.56;4984082;28;20132;-72
2022/05/04 08:08:25;;;;;;;;;;;;;;;14.90;31.76;95601.59;4980021;28;19973;-72
2022/05/04 08:10:50;;;;;;;;;;;;;;;15.17;31.14;95598.91;4991246;28;20057;-71
2022/05/04 08:13:17;;;;;;;;;;;;;;;15.42;31.47;95600.09;5016024;28;20370;-72
2022/05/04 08:15:42;;;;;;;;;;;;;;;15.59;30.52;95598.66;5009464;28;20081;-72
2022/05/04 08:18:07;;;;;;;;;;;;;;;15.64;31.35;95602.56;5008053;28;20359;-73
2022/05/04 08:20:32;;;;;;;;;;;;;;;15.78;32.21;95598.81;5010183;28;19969;-72
2022/05/04 08:22:58;;;;;;;;;;;;;;;16.09;31.03;95599.91;5010250;28;20415;-72
2022/05/04 08:25:23;;;;;;;;;;;;;;;16.11;30.90;95603.19;5014904;28;20014;-73
2022/05/04 08:27:49;;;;;;;;;;;;;;;15.66;31.61;95597.78;5013402;28;19977;-73
2022/05/04 08:30:14;;;;;;;;;;;;;;;15.08;33.62;95608.19;5017016;28;20303;-72
2022/05/04 08:32:40;;;;;;;;;;;;;;;14.63;34.62;95608.75;5017783;28;20028;-73
2022/05/04 08:35:05;;;;;;;;;;;;;;;14.34;34.37;95611.56;5005930;28;19969;-72
2022/05/04 08:37:31;;;;;;;;;;;;;;;14.25;34.83;95613.63;5012461;28;19967;-72
2022/05/04 08:39:57;;;;;;;;;;;;;;;13.97;35.23;95614.53;5002318;28;19987;-72
2022/05/04 08:42:22;;;;;;;;;;;;;;;13.78;35.77;95618.75;5011766;28;20301;-72
2022/05/04 08:44:47;;;;;;;;;;;;;;;13.73;35.35;95614.00;5014592;28;20410;-72
2022/05/04 08:47:13;;;;;;;;;;;;;;;13.76;35.39;95608.25;5006922;28;20139;-73
2022/05/04 08:49:38;;;;;;;;;;;;;;;13.97;35.52;95611.88;5013889;28;20011;-72
2022/05/04 08:52:06;;;;;;;;;;;;;;;14.21;34.11;95607.84;5006356;28;20015;-73
2022/05/04 08:54:31;;;;;;;;;;;;;;;14.87;32.91;95607.38;5013147;28;20446;-72
2022/05/04 08:56:57;;;;;;;;;;;;;;;15.15;30.93;95602.81;5005618;28;19986;-67
2022/05/04 08:59:22;;;;;;;;;;;;;;;15.29;31.49;95608.97;5005930;28;20417;-68
2022/05/04 09:01:47;;;;;;;;;;;;;;;15.60;29.92;95604.81;5005183;28;19976;-71
2022/05/04 09:04:13;;;;;;;;;;;;;;;14.70;29.95;95609.59;5010974;28;20034;-70
2022/05/04 09:06:41;;;;;;;;;;;;;;;14.56;31.76;95609.59;5005473;28;20235;-70
2022/05/04 09:09:13;;;;;;;;;;;;;;;15.46;30.55;95593.25;5009963;28;19969;-70
2022/05/04 09:11:48;;;;;;;;;;;;;;;15.09;29.85;95597.25;5004890;28;19999;-69
2022/05/04 09:14:14;;;;;;;;;;;;;;;14.09;30.88;95598.75;5009811;28;20594;-69
2022/05/04 09:16:39;;;;;;;;;;;;;;;14.94;32.22;95592.13;5003164;28;20070;-68
2022/05/04 09:19:08;;;;;;;;;;;;;;;14.34;32.75;95590.97;5006862;28;19954;-67
2022/05/04 09:21:33;;;;;;;;;;;;;;;15.34;31.31;95587.75;5005061;28;19999;-68
2022/05/04 09:23:58;;;;;;;;;;;;;;;15.64;30.14;95583.78;5012314;28;19982;-69
2022/05/04 09:26:23;;;;;;;;;;;;;;;15.84;29.58;95583.72;5000607;28;19979;-69
2022/05/04 09:28:56;;;;;;;;;;;;;;;15.65;29.44;95590.78;5012934;28;20083;-68
2022/05/04 09:31:25;;;;;;;;;;;;;;;15.37;30.80;95595.38;5006800;28;20275;-68
2022/05/04 09:33:53;;;;;;;;;;;;;;;14.91;30.24;95605.91;5002818;28;20041;-69
2022/05/04 09:36:38;;;;;;;;;;;;;;;14.69;31.65;95607.94;5013384;28;19985;-69
2022/05/04 09:44:54;;;;;;;;;;;;;;;13.10;33.82;95606.81;5013395;28;20066;-69
2022/05/04 09:47:20;;;;;;;;;;;;;;;13.06;35.11;95606.41;5021355;28;19988;-69
2022/05/04 09:49:49;;;;;;;;;;;;;;;13.27;34.37;95608.19;5020818;28;19978;-69
2022/05/04 09:52:14;;;;;;;;;;;;;;;13.43;36.68;95612.41;5019482;28;20475;-70
2022/05/04 09:54:40;;;;;;;;;;;;;;;13.96;36.42;95612.91;5021069;28;19971;-70
2022/05/04 09:57:06;;;;;;;;;;;;;;;14.44;34.57;95603.97;5020601;28;20069;-70
2022/05/04 09:59:31;;;;;;;;;;;;;;;15.23;32.41;95605.28;5021411;28;19989;-69
2022/05/04 10:01:59;;;;;;;;;;;;;;;15.61;30.60;95603.81;5021300;28;19962;-69
2022/05/04 10:04:24;;;;;;;;;;;;;;;15.97;28.73;95602.44;5018907;28;19978;-70
2022/05/04 10:06:50;;;;;;;;;;;;;;;16.52;27.37;95609.22;5018484;28;20644;-70
2022/05/04 10:09:15;;;;;;;;;;;;;;;16.43;28.02;95602.44;5013803;28;20082;-70
2022/05/04 10:11:40;;;;;;;;;;;;;;;16.75;28.59;95605.13;5020518;28;19994;-71
2022/05/04 10:14:08;;;;;;;;;;;;;;;17.33;29.12;95604.28;5021729;28;20375;-71
2022/05/04 10:16:35;;;;;;;;;;;;;;;16.92;27.31;95603.78;5019245;28;19963;-71
2022/05/04 10:19:00;;;;;;;;;;;;;;;17.39;27.65;95598.00;5018723;28;19943;-71
2022/05/04 10:21:25;;;;;;;;;;;;;;;18.52;24.50;95596.88;5008728;28;19945;-71
2022/05/04 10:23:53;;;;;;;;;;;;;;;18.91;24.91;95598.41;5017464;28;20473;-71
2022/05/04 10:26:30;;;;;;;;;;;;;;;18.21;24.90;95596.06;5010361;28;19965;-71
2022/05/04 10:31:39;;;;;;;;;;;;;;;18.08;23.87;95597.06;5011106;28;19982;-70
2022/05/04 10:34:06;;;;;;;;;;;;;;;17.96;22.28;95588.94;5017466;28;20022;-70
2022/05/04 10:36:31;;;;;;;;;;;;;;;18.79;22.43;95588.41;5018230;28;19952;-70
2022/05/04 10:38:57;;;;;;;;;;;;;;;19.70;21.97;95585.63;5012627;28;19948;-70
2022/05/04 10:41:49;;;;;;;;;;;;;;;19.28;21.18;95592.03;5016744;28;20121;-71
2022/05/04 10:44:14;;;;;;;;;;;;;;;18.89;23.42;95597.81;5018812;28;20057;-70
2022/05/04 10:46:41;;;;;;;;;;;;;;;18.91;24.27;95588.47;5016060;28;20424;-68
2022/05/04 10:49:08;;;;;;;;;;;;;;;18.62;25.10;95598.22;5020862;28;19981;-69
2022/05/04 10:51:34;;;;;;;;;;;;;;;18.58;23.43;95591.63;5012443;28;19971;-69
2022/05/04 10:54:12;;;;;;;;;;;;;;;18.21;23.68;95593.38;5016246;28;19950;-69
2022/05/04 10:56:42;;;;;;;;;;;;;;;17.81;23.84;95586.56;5016404;28;19981;-69
2022/05/04 10:59:07;;;;;;;;;;;;;;;17.75;24.45;95580.22;5016119;28;20004;-68
2022/05/04 11:01:34;;;;;;;;;;;;;;;18.02;25.58;95574.53;5019050;28;20387;-69
2022/05/04 11:04:11;;;;;;;;;;;;;;;17.88;25.90;95578.47;5020028;28;20484;-69
2022/05/04 11:06:40;;;;;;;;;;;;;;;17.90;23.66;95571.81;5012616;28;19977;-69
2022/05/04 11:09:08;;;;;;;;;;;;;;;18.42;23.81;95575.03;5015688;28;19960;-68
2022/05/04 11:11:33;;;;;;;;;;;;;;;19.38;24.48;95567.94;5017730;28;19976;-69
2022/05/04 11:13:59;;;;;;;;;;;;;;;18.58;22.72;95575.47;5000798;28;20424;-68
2022/05/04 11:16:24;;;;;;;;;;;;;;;18.82;25.56;95579.88;5013688;28;19968;-69
2022/05/04 11:18:49;;;;;;;;;;;;;;;19.44;22.38;95568.88;5016744;28;19976;-69
2022/05/04 11:21:15;;;;;;;;;;;;;;;19.95;22.01;95568.31;5016813;28;19959;-69
2022/05/04 11:23:44;;;;;;;;;;;;;;;20.28;21.34;95572.22;5017991;28;19957;-69
2022/05/04 11:26:16;;;;;;;;;;;;;;;20.45;21.32;95568.75;5019627;28;19945;-68
2022/05/04 11:28:41;;;;;;;;;;;;;;;20.93;20.29;95565.78;5018755;28;19955;-69
2022/05/04 11:31:08;;;;;;;;;;;;;;;20.35;22.10;95564.78;5016688;28;20026;-71
2022/05/04 11:33:33;;;;;;;;;;;;;;;19.83;22.30;95565.66;5016310;28;19934;-66
2022/05/04 11:35:59;;;;;;;;;;;;;;;20.23;20.99;95559.44;5009191;28;19995;-73
2022/05/04 11:38:24;;;;;;;;;;;;;;;20.31;23.74;95560.94;5020187;28;20138;-72
2022/05/04 11:40:49;;;;;;;;;;;;;;;20.38;21.31;95557.25;5002007;28;20272;-72
2022/05/04 11:43:41;;;;;;;;;;;;;;;20.45;21.97;95561.47;5000889;28;19976;-72
2022/05/04 11:46:07;;;;;;;;;;;;;;;20.44;20.80;95548.19;5015203;28;20495;-72
2022/05/04 11:48:37;;;;;;;;;;;;;;;20.74;21.53;95547.91;5022365;28;20279;-72
2022/05/04 11:51:03;;;;;;;;;;;;;;;21.55;19.96;95542.34;5023094;28;20378;-72
2022/05/04 11:53:29;;;;;;;;;;;;;;;21.05;20.64;95549.47;5015470;28;20399;-72
2022/05/04 11:55:54;;;;;;;;;;;;;;;21.03;21.96;95544.28;5018774;28;19988;-72
2022/05/04 11:58:19;;;;;;;;;;;;;;;20.87;22.61;95544.06;5021408;28;20405;-75
2022/05/04 12:00:45;;;;;;;;;;;;;;;20.71;22.98;95536.75;5020163;28;20064;-72
2022/05/04 12:03:10;;;;;;;;;;;;;;;20.19;20.87;95536.66;5023935;28;19937;-72
2022/05/04 12:05:36;;;;;;;;;;;;;;;21.15;20.52;95537.97;5022601;28;19950;-72
2022/05/04 12:08:04;;;;;;;;;;;;;;;21.49;19.85;95535.22;5018492;28;20299;-72
2022/05/04 12:10:29;;;;;;;;;;;;;;;21.35;21.02;95532.88;5021100;28;19929;-72
2022/05/04 12:12:55;;;;;;;;;;;;;;;21.84;19.73;95525.91;5022289;28;19959;-72
2022/05/04 12:15:26;;;;;;;;;;;;;;;21.34;20.22;95527.69;5023691;28;19951;-73
2022/05/04 12:17:51;;;;;;;;;;;;;;;21.96;20.61;95535.84;5016409;28;19935;-72
2022/05/04 12:20:18;;;;;;;;;;;;;;;22.37;19.21;95532.72;5019084;28;20651;-72
2022/05/04 12:22:43;;;;;;;;;;;;;;;21.93;19.86;95528.19;5021240;28;19959;-72
2022/05/04 12:25:08;;;;;;;;;;;;;;;21.28;20.11;95524.09;5023317;28;20415;-72
2022/05/04 12:27:35;;;;;;;;;;;;;;;21.92;18.89;95526.56;5023483;28;19960;-72
2022/05/04 12:35:29;;;;;;;;;;;;;;;22.27;19.37;95517.97;5020569;28;20013;-72
2022/05/04 12:37:54;;;;;;;;;;;;;;;22.04;20.61;95516.41;5023690;28;20272;-72
2022/05/04 12:40:20;;;;;;;;;;;;;;;21.17;21.66;95511.50;5022673;28;19957;-72
2022/05/04 12:42:45;;;;;;;;;;;;;;;20.21;22.50;95523.72;5023424;28;20346;-72
2022/05/04 12:45:14;;;;;;;;;;;;;;;19.90;21.95;95515.03;5021295;28;20256;-73
2022/05/04 12:47:39;;;;;;;;;;;;;;;19.85;22.37;95515.72;5018725;28;19959;-72
2022/05/04 12:50:05;;;;;;;;;;;;;;;19.36;21.99;95517.97;5022405;28;20311;-73
2022/05/04 12:52:30;;;;;;;;;;;;;;;19.78;22.78;95509.66;5022130;28;20424;-72
2022/05/04 12:54:55;;;;;;;;;;;;;;;20.41;23.48;95517.06;5023739;28;19989;-72
2022/05/04 12:57:20;;;;;;;;;;;;;;;19.18;25.06;95517.03;5022234;28;20031;-73
2022/05/04 12:59:46;;;;;;;;;;;;;;;18.74;24.77;95509.28;5021668;28;19954;-73
2022/05/04 13:02:11;;;;;;;;;;;;;;;19.25;25.12;95506.94;5023215;28;19954;-73
2022/05/04 13:04:36;;;;;;;;;;;;;;;18.95;23.49;95499.78;5018773;28;19963;-72
2022/05/04 13:07:02;;;;;;;;;;;;;;;19.69;24.52;95500.31;5015915;28;20133;-72
2022/05/04 13:09:28;;;;;;;;;;;;;;;19.51;26.24;95504.78;5013561;28;20166;-72
2022/05/04 13:11:53;;;;;;;;;;;;;;;19.05;27.06;95510.00;5022742;28;19987;-72
2022/05/04 13:14:20;;;;;;;;;;;;;;;19.18;25.65;95506.25;5022921;28;20008;-72
2022/05/04 13:16:45;;;;;;;;;;;;;;;18.43;26.33;95514.72;5022899;28;20454;-72